Capitol Logistics 429


KPWM
Portland International Jetport
Portland, Maine, US
KIAD
Washington Dulles International Airport
Dulles, Virginia, US

Activity Log

Date Flight Route Aircraft Duration
01/21/2021 CPX429 NUBLE3 BAF HYPER7 B738 1h 28m
08/10/2019 CPX429 NUBLE3 BAF HYPER7 B752 1h 39m
12/04/2018 CPX529 NUBLE4 BAF HYPER7 B752 1h 35m
03/31/2018 CPX529 NUBLE3 BAF HYPER7 B752 1h 32m

Route Details

Aircraft Information
Primary: Boeing 737-800BCF
Backup: Not Available
Route Data
Distance: 429nm
Sched. Duration: 1h 41m
Avg. Duration: 1h 33m (-8m)
Times Flown: 4
Recm'd Route: NUBLE3 BAF HYPER7
Planned Altitude: 34,000ft
Origin Wx: KPWM 240851Z 28007KT 10SM CLR M11/M18 A2978 RMK AO2 SLP085 T11061183 56009
Dest. Wx: KIAD 240852Z 32013KT 10SM FEW140 BKN170 M04/M12 A3031 RMK AO2 SLP267 T10391122 58002
Notes: LOBSTER KING

Financial History
Total Freight: 193,161lbs
Average Load: 48,290lbs/flt
Fuel Used: 41,346lbs
Avg. Fuel Used: 10,337lbs/flt
Fuel Expense: $27,173
Avg. Fuel Expense: $6,793
Avg. Fuel Cost: $0.65/lbs
Total Gross Income: $244,272
Pilot Pay: $356
Total Expenses: $27,628
Total Revenue: $188,271
Average Revenue: $61,067.92